Time;durP1;ratioP1;P1;durP2;ratioP2;P2;SDS_P1;SDS_P2;PMS_P1;PMS_P2;Temp;Humidity;BMP_temperature;BMP_pressure;BME280_temperature;BME280_humidity;BME280_pressure;Samples;Min_cycle;Max_cycle;Signal;HPM_P1;HPM_P2
2022/10/05 00:02:21;;;;;;;15.83;8.20;;;;;;;7.40;93.20;101423.34;1414294;91;21435;-79
2022/10/05 00:04:50;;;;;;;13.10;7.63;;;;;;;7.40;92.82;101424.66;1436006;91;22033;-78
2022/10/05 00:07:20;;;;;;;20.93;8.40;;;;;;;7.37;94.53;101431.45;1418505;91;21493;-78
2022/10/05 00:09:57;;;;;;;25.35;9.50;;;;;;;7.34;95.65;101442.19;1415150;92;22408;-78
2022/10/05 00:12:27;;;;;;;22.67;10.03;;;;;;;7.32;95.84;101446.70;1413752;92;21725;-78
2022/10/05 00:14:58;;;;;;;17.87;9.03;;;;;;;7.32;94.69;101443.59;1414895;92;22508;-78
2022/10/05 00:17:29;;;;;;;21.43;9.60;;;;;;;7.34;95.26;101447.45;1417735;92;21478;-78
2022/10/05 00:19:56;;;;;;;15.30;8.23;;;;;;;7.37;95.40;101445.93;1420579;91;21428;-78
2022/10/05 00:22:32;;;;;;;22.47;8.50;;;;;;;7.41;96.32;101444.77;1428409;91;21509;-77
2022/10/05 00:25:03;;;;;;;39.73;11.47;;;;;;;7.42;97.11;101445.12;1440420;91;21524;-77
2022/10/05 00:27:36;;;;;;;55.00;8.95;;;;;;;7.44;96.61;101444.56;1432626;91;21739;-77
2022/10/05 00:30:17;;;;;;;22.07;7.50;;;;;;;7.48;95.72;101454.41;1427644;91;21624;-78
2022/10/05 00:32:44;;;;;;;16.55;7.45;;;;;;;7.51;95.58;101448.48;1435706;91;22376;-77
2022/10/05 00:35:12;;;;;;;16.23;7.93;;;;;;;7.54;95.36;101447.41;1424867;91;21435;-77
2022/10/05 00:37:39;;;;;;;13.83;6.70;;;;;;;7.52;95.57;101438.31;1433273;91;21596;-77
2022/10/05 00:40:18;;;;;;;12.87;6.07;;;;;;;7.52;95.44;101435.67;1431717;91;21685;-77
2022/10/05 00:43:06;;;;;;;15.73;6.53;;;;;;;7.55;95.74;101442.53;1416357;91;21465;-77
2022/10/05 00:45:44;;;;;;;16.63;6.23;;;;;;;7.56;95.95;101439.78;1414199;92;22323;-77
2022/10/05 00:48:31;;;;;;;11.37;5.80;;;;;;;7.60;96.49;101437.80;1416982;92;21607;-77
2022/10/05 00:51:09;;;;;;;12.97;6.07;;;;;;;7.65;96.31;101439.19;1417838;92;22616;-78
2022/10/05 00:53:59;;;;;;;9.10;6.37;;;;;;;7.72;95.95;101434.33;1413963;92;21537;-78
2022/10/05 00:56:49;;;;;;;11.30;6.87;;;;;;;7.78;97.48;101440.97;1411503;92;22051;-79
2022/10/05 00:59:36;;;;;;;9.08;6.60;;;;;;;7.83;97.28;101432.28;1406107;92;21538;-78
2022/10/05 01:02:39;;;;;;;10.80;6.97;;;;;;;7.88;96.82;101420.93;1419720;91;21509;-77
2022/10/05 01:05:29;;;;;;;12.33;6.83;;;;;;;7.94;96.79;101417.89;1429320;91;21449;-77
2022/10/05 01:08:19;;;;;;;12.27;6.93;;;;;;;7.99;96.47;101409.17;1420644;91;21520;-78
2022/10/05 01:11:00;;;;;;;10.83;7.33;;;;;;;8.07;96.23;101406.00;1428671;91;21391;-77
2022/10/05 01:13:31;;;;;;;15.03;6.75;;;;;;;8.12;95.81;101404.73;1422357;91;22113;-78
2022/10/05 01:16:08;;;;;;;11.50;7.37;;;;;;;8.17;95.51;101411.02;1405087;93;21407;-78
2022/10/05 01:19:01;;;;;;;12.90;7.37;;;;;;;8.22;95.54;101415.95;1402651;92;22285;-78
2022/10/05 01:21:32;;;;;;;10.53;7.07;;;;;;;8.23;95.23;101417.63;1410012;92;21539;-77
2022/10/05 01:24:12;;;;;;;19.02;8.68;;;;;;;8.24;95.08;101421.48;1417311;92;21623;-77
2022/10/05 01:27:09;;;;;;;17.30;6.67;;;;;;;8.25;95.00;101413.09;1413457;92;21428;-78
2022/10/05 01:29:50;;;;;;;10.30;6.13;;;;;;;8.25;95.11;101417.05;1415087;92;21560;-75
2022/10/05 01:32:45;;;;;;;8.18;5.92;;;;;;;8.28;95.03;101421.62;1419741;92;22505;-77
2022/10/05 01:35:34;;;;;;;11.80;5.60;;;;;;;8.31;95.05;101429.31;1409260;92;21302;-75
2022/10/05 01:38:51;;;;;;;8.27;6.27;;;;;;;8.34;95.00;101426.48;1417098;91;21620;-77
2022/10/05 01:41:26;;;;;;;10.83;6.80;;;;;;;8.38;94.84;101435.02;1412181;92;21656;-76
2022/10/05 01:44:17;;;;;;;12.73;6.53;;;;;;;8.33;94.50;101433.17;1407218;93;22347;-77
2022/10/05 01:47:10;;;;;;;8.60;6.83;;;;;;;8.29;94.73;101437.00;1416672;92;21524;-76
2022/10/05 01:49:48;;;;;;;10.93;7.33;;;;;;;8.24;94.76;101439.95;1413083;92;21526;-76
2022/10/05 01:52:49;;;;;;;13.17;7.37;;;;;;;8.18;94.93;101443.02;1410309;92;21465;-76
2022/10/05 01:55:28;;;;;;;;;;;;;;;8.14;94.56;101442.84;1416938;92;22337;-76
2022/10/05 01:58:19;;;;;;;10.13;5.70;;;;;;;8.08;95.01;101440.16;1411246;92;20275;-76
2022/10/05 02:00:59;;;;;;;10.58;5.83;;;;;;;8.03;94.77;101440.98;1396283;93;21555;-76
2022/10/05 02:03:36;;;;;;;9.33;6.40;;;;;;;8.01;95.07;101433.64;1405524;92;21517;-76
2022/10/05 02:06:16;;;;;;;11.07;6.00;;;;;;;8.00;95.46;101439.00;1404763;93;21540;-76
2022/10/05 02:08:47;;;;;;;13.40;6.50;;;;;;;7.94;95.46;101444.25;1405057;93;22426;-76
2022/10/05 02:11:14;;;;;;;15.20;7.23;;;;;;;7.90;95.24;101441.44;1398997;93;21945;-76
2022/10/05 02:13:51;;;;;;;10.23;5.60;;;;;;;7.85;94.93;101439.59;1405280;93;21548;-76
2022/10/05 02:16:41;;;;;;;15.03;7.50;;;;;;;7.80;94.89;101446.99;1390193;93;23690;-75
2022/10/05 02:19:24;;;;;;;7.60;5.87;;;;;;;7.74;94.29;101444.30;1398207;94;21481;-76
2022/10/05 02:22:04;;;;;;;10.23;6.00;;;;;;;7.71;94.31;101448.91;1390498;92;21785;-76
2022/10/05 02:24:43;;;;;;;10.65;6.67;;;;;;;7.67;94.46;101449.12;1396942;93;21495;-75
2022/10/05 02:27:12;;;;;;;10.47;5.70;;;;;;;7.65;94.76;101452.36;1393073;94;22527;-74
2022/10/05 02:29:43;;;;;;;14.83;6.37;;;;;;;7.63;94.72;101451.61;1394677;92;21570;-75
2022/10/05 02:32:22;;;;;;;16.07;7.67;;;;;;;7.60;94.88;101458.88;1373425;94;21457;-75
2022/10/05 02:34:49;;;;;;;11.13;6.60;;;;;;;7.58;94.62;101461.60;1397717;93;21501;-75
2022/10/05 02:37:38;;;;;;;12.40;6.63;;;;;;;7.54;95.14;101457.50;1395357;93;21429;-75
2022/10/05 02:40:26;;;;;;;14.07;7.30;;;;;;;7.50;95.95;101461.27;1392826;93;21604;-74
2022/10/05 02:43:10;;;;;;;9.80;6.07;;;;;;;7.47;95.65;101457.52;1398989;93;21554;-76
2022/10/05 02:45:57;;;;;;;13.53;6.00;;;;;;;7.49;95.05;101449.05;1379640;93;22041;-75
2022/10/05 02:48:43;;;;;;;12.47;7.10;;;;;;;7.47;95.07;101456.20;1378803;95;21711;-75
2022/10/05 02:51:33;;;;;;;11.83;6.47;;;;;;;7.45;95.11;101458.96;1409295;92;22293;-75
2022/10/05 02:54:32;;;;;;;12.47;6.07;;;;;;;7.45;95.32;101450.19;1417938;92;21495;-76
2022/10/05 02:57:18;;;;;;;13.63;6.40;;;;;;;7.44;95.56;101446.72;1415758;92;21610;-75
2022/10/05 02:59:53;;;;;;;11.80;6.50;;;;;;;7.43;95.35;101454.26;1416322;92;21694;-76
2022/10/05 03:02:57;;;;;;;9.27;6.40;;;;;;;7.40;96.06;101461.05;1419931;92;22292;-76
2022/10/05 03:05:29;;;;;;;9.87;7.17;;;;;;;7.35;95.75;101461.82;1416223;91;21427;-76
2022/10/05 03:08:23;;;;;;;9.53;5.97;;;;;;;7.32;95.92;101466.45;1421038;91;21646;-75
2022/10/05 03:11:16;;;;;;;10.73;7.00;;;;;;;7.29;96.59;101466.66;1437909;91;21516;-76
2022/10/05 03:14:09;;;;;;;10.70;6.43;;;;;;;7.28;96.66;101457.92;1418314;91;21746;-77
2022/10/05 03:17:01;;;;;;;9.70;7.47;;;;;;;7.32;96.39;101472.56;1417855;91;22294;-76
2022/10/05 03:19:57;;;;;;;10.47;8.00;;;;;;;7.36;96.36;101465.29;1383265;94;21414;-76
2022/10/05 03:22:49;;;;;;;12.90;8.00;;;;;;;7.37;96.49;101469.16;1373348;94;21770;-76
2022/10/05 03:25:47;;;;;;;11.00;8.37;;;;;;;7.37;96.40;101469.63;1396783;94;21659;-76
2022/10/05 03:28:45;;;;;;;13.33;7.53;;;;;;;7.34;96.57;101473.79;1393001;94;22453;-76
2022/10/05 03:31:40;;;;;;;12.17;8.17;;;;;;;7.31;96.70;101472.64;1389315;94;21682;-76
2022/10/05 03:34:17;;;;;;;13.33;6.57;;;;;;;7.31;96.70;101469.56;1385309;94;21424;-75
2022/10/05 03:37:10;;;;;;;13.33;7.07;;;;;;;7.31;96.91;101469.56;1383203;94;21398;-75
2022/10/05 03:40:08;;;;;;;14.93;7.20;;;;;;;7.33;96.84;101465.02;1391929;94;22293;-75
2022/10/05 03:43:07;;;;;;;12.77;7.67;;;;;;;7.35;96.89;101471.52;1384709;94;21740;-76
2022/10/05 03:45:54;;;;;;;13.23;7.70;;;;;;;7.36;97.09;101467.92;1385787;94;21472;-75
2022/10/05 03:48:49;;;;;;;14.80;7.80;;;;;;;7.36;97.20;101469.24;1379192;94;23031;-75
2022/10/05 03:51:21;;;;;;;10.70;8.30;;;;;;;7.37;96.74;101469.16;1377302;94;21473;-75
2022/10/05 03:53:55;;;;;;;13.67;7.97;;;;;;;7.34;96.93;101479.05;1416978;92;21391;-75
2022/10/05 03:56:33;;;;;;;11.17;7.53;;;;;;;7.29;96.86;101480.66;1408566;92;21732;-75
2022/10/05 03:59:30;;;;;;;10.07;6.77;;;;;;;7.28;96.72;101475.48;1398155;93;21526;-75
2022/10/05 04:02:01;;;;;;;13.00;8.33;;;;;;;7.24;96.43;101478.31;1381108;94;21567;-75
2022/10/05 04:04:33;;;;;;;;;;;;;;;7.20;96.47;101480.80;1419857;91;21597;-75
2022/10/05 04:07:01;;;;;;;10.83;6.60;;;;;;;7.18;96.40;101478.72;1424770;91;20340;-75
2022/10/05 04:09:33;;;;;;;10.93;7.53;;;;;;;7.16;96.25;101481.95;1429718;91;22654;-75
2022/10/05 04:12:27;;;;;;;14.27;6.30;;;;;;;7.14;96.47;101478.56;1411750;91;21628;-75
2022/10/05 04:15:08;;;;;;;9.80;7.43;;;;;;;7.09;96.29;101470.11;1436741;91;21548;-75
2022/10/05 04:17:50;;;;;;;;;;;;;;;7.07;96.12;101469.84;1413467;91;21443;-75
2022/10/05 04:20:26;;;;;;;9.63;7.07;;;;;;;7.02;96.58;101467.52;1412197;92;20387;-76
2022/10/05 04:23:13;;;;;;;13.53;8.57;;;;;;;6.95;96.13;101470.16;1413417;92;21555;-75
2022/10/05 04:25:50;;;;;;;9.73;6.60;;;;;;;6.92;96.41;101467.73;1409027;92;21510;-75
2022/10/05 04:28:24;;;;;;;6.93;5.90;;;;;;;6.89;96.69;101473.19;1424015;92;21525;-75
2022/10/05 04:30:53;;;;;;;8.77;6.40;;;;;;;6.86;96.87;101471.59;1417437;92;22390;-76
2022/10/05 04:33:21;;;;;;;13.53;5.77;;;;;;;6.88;97.46;101483.35;1422130;91;21531;-75
2022/10/05 04:36:13;;;;;;;7.63;5.80;;;;;;;6.87;97.08;101485.59;1420885;91;21695;-76
2022/10/05 04:39:04;;;;;;;9.77;6.47;;;;;;;6.87;96.81;101489.06;1412645;91;21435;-78
2022/10/05 04:42:00;;;;;;;27.48;7.55;;;;;;;6.87;97.16;101491.69;1427610;91;21629;-77
2022/10/05 04:45:22;;;;;;;10.97;7.33;;;;;;;6.87;97.67;101500.91;1418208;91;21465;-78
2022/10/05 04:48:28;;;;;;;13.37;7.23;;;;;;;6.87;97.83;101505.33;1413674;91;21436;-78
2022/10/05 04:51:35;;;;;;;12.93;6.40;;;;;;;6.89;97.86;101510.03;1419982;91;21530;-76
2022/10/05 04:54:22;;;;;;;9.60;6.50;;;;;;;6.92;98.18;101508.04;1430616;91;21384;-77
2022/10/05 04:56:54;;;;;;;11.33;5.40;;;;;;;6.98;97.87;101508.97;1438048;87;22586;-75
2022/10/05 04:59:50;;;;;;;10.87;6.37;;;;;;;7.03;97.49;101517.89;1454272;89;21412;-75
2022/10/05 05:02:40;;;;;;;13.90;6.13;;;;;;;7.04;97.58;101511.67;1469928;88;21529;-78
2022/10/05 05:05:29;;;;;;;12.13;6.83;;;;;;;7.06;97.68;101513.75;1474669;88;21477;-76
2022/10/05 05:08:12;;;;;;;13.57;7.93;;;;;;;7.09;97.63;101516.18;1455050;88;21669;-81
2022/10/05 05:10:59;;;;;;;13.87;7.80;;;;;;;7.10;97.83;101514.39;1475703;88;21589;-81
2022/10/05 05:13:42;;;;;;;12.97;6.13;;;;;;;7.13;98.01;101511.08;1456827;87;21367;-81
2022/10/05 05:16:36;;;;;;;10.80;6.27;;;;;;;7.20;98.72;101501.86;1497547;86;21515;-82
2022/10/05 05:19:37;;;;;;;12.70;6.37;;;;;;;7.28;98.32;101500.50;1460131;88;21391;-79
2022/10/05 05:22:21;;;;;;;7.28;4.22;;;;;;;7.37;98.39;101506.02;1516804;85;21506;-80
2022/10/05 05:25:13;;;;;;;21.97;5.73;;;;;;;7.45;98.33;101502.42;1526393;85;21562;-81
2022/10/05 05:28:06;;;;;;;15.60;5.57;;;;;;;7.56;98.39;101503.00;1479941;88;22130;-80
2022/10/05 05:30:43;;;;;;;7.70;5.33;;;;;;;7.65;98.28;101503.73;1488911;87;21457;-81
2022/10/05 05:33:23;;;;;;;12.23;5.77;;;;;;;7.76;98.15;101511.37;1477368;87;22343;-80
2022/10/05 05:36:13;;;;;;;8.40;5.67;;;;;;;7.83;98.19;101507.40;1470748;88;21649;-80
2022/10/05 05:38:45;;;;;;;12.20;5.03;;;;;;;7.91;98.13;101512.97;1467344;87;21600;-81
2022/10/05 05:41:16;;;;;;;8.03;5.17;;;;;;;8.01;97.73;101508.77;1471359;88;21456;-81
2022/10/05 05:44:14;;;;;;;8.57;4.83;;;;;;;8.11;98.31;101512.48;1475454;88;21456;-80
2022/10/05 05:46:45;;;;;;;8.07;4.40;;;;;;;8.21;98.05;101507.89;1480559;88;22460;-81
2022/10/05 05:49:26;;;;;;;9.73;5.37;;;;;;;8.31;98.04;101512.40;1464706;89;21553;-80
2022/10/05 05:52:12;;;;;;;5.62;4.20;;;;;;;8.40;97.75;101512.30;1479060;88;21477;-81
2022/10/05 05:54:49;;;;;;;8.27;4.53;;;;;;;8.51;97.50;101517.64;1483681;88;21420;-81
2022/10/05 05:57:35;;;;;;;6.73;4.50;;;;;;;8.63;97.55;101512.45;1477496;88;21507;-80
2022/10/05 06:00:19;;;;;;;6.30;4.07;;;;;;;8.76;97.68;101518.56;1480619;88;21573;-81
2022/10/05 06:03:29;;;;;;;11.90;5.67;;;;;;;8.91;97.56;101525.37;1479189;88;21575;-81
2022/10/05 06:06:00;;;;;;;11.10;4.97;;;;;;;9.03;96.88;101517.91;1474595;89;21515;-81
2022/10/05 06:08:54;;;;;;;8.30;5.53;;;;;;;9.14;96.40;101520.23;1474341;88;21426;-80
2022/10/05 06:11:42;;;;;;;8.43;4.50;;;;;;;9.21;96.78;101525.45;1482752;88;21463;-81
2022/10/05 06:14:13;;;;;;;7.70;4.97;;;;;;;9.28;96.00;101529.31;1485381;88;22343;-81
2022/10/05 06:16:47;;;;;;;9.33;4.83;;;;;;;9.42;96.09;101530.47;1479968;88;22372;-81
2022/10/05 06:19:18;;;;;;;9.53;4.47;;;;;;;9.57;96.06;101539.05;1497071;87;21456;-81
2022/10/05 06:22:06;;;;;;;10.72;4.90;;;;;;;9.71;95.69;101538.03;1482093;87;21673;-81
2022/10/05 06:24:41;;;;;;;11.87;5.67;;;;;;;9.81;94.98;101549.62;1485083;87;21589;-82
2022/10/05 06:27:25;;;;;;;11.43;5.77;;;;;;;9.92;94.44;101549.63;1463578;89;22292;-83
2022/10/05 06:30:05;;;;;;;10.80;6.23;;;;;;;10.00;94.35;101562.28;1484588;88;22409;-83
2022/10/05 06:32:55;;;;;;;10.05;5.60;;;;;;;10.12;93.78;101563.14;1495091;87;22307;-81
2022/10/05 06:35:53;;;;;;;18.90;5.67;;;;;;;10.23;93.84;101557.04;1478523;87;21850;-83
2022/10/05 06:38:51;;;;;;;11.90;5.67;;;;;;;10.37;93.10;101559.50;1485146;87;22402;-82
2022/10/05 06:41:49;;;;;;;12.77;4.50;;;;;;;10.53;93.23;101576.34;1470493;89;21500;-80
2022/10/05 06:44:26;;;;;;;9.70;5.33;;;;;;;10.73;93.04;101587.57;1474742;88;22602;-80
2022/10/05 06:47:10;;;;;;;11.87;5.40;;;;;;;10.96;92.51;101592.83;1481849;88;21641;-83
2022/10/05 06:50:02;;;;;;;8.07;3.83;;;;;;;11.16;91.71;101597.88;1461790;87;23549;-82
2022/10/05 06:52:45;;;;;;;6.33;3.90;;;;;;;11.25;87.76;101615.22;1483779;87;21449;-82
2022/10/05 06:55:34;;;;;;;9.17;3.27;;;;;;;11.41;88.72;101619.27;1465925;89;22351;-85
2022/10/05 06:58:19;;;;;;;6.73;4.33;;;;;;;11.50;87.19;101615.88;1481850;88;22365;-84
2022/10/05 07:01:00;;;;;;;7.47;3.77;;;;;;;11.62;87.65;101628.12;1477962;88;22454;-84
2022/10/05 07:04:16;;;;;;;6.67;4.42;;;;;;;11.80;87.43;101631.59;1475550;88;21632;-84
2022/10/05 07:06:54;;;;;;;9.63;4.17;;;;;;;11.94;87.34;101640.61;1482025;88;21463;-83
2022/10/05 07:09:28;;;;;;;8.87;4.57;;;;;;;12.17;86.90;101647.50;1486286;88;21521;-84
2022/10/05 07:12:03;;;;;;;7.53;4.50;;;;;;;12.31;85.02;101656.94;1465726;89;21600;-84
2022/10/05 07:14:44;;;;;;;11.50;4.50;;;;;;;12.36;83.91;101668.51;1479617;88;21507;-84
2022/10/05 07:17:31;;;;;;;10.65;5.00;;;;;;;12.36;81.89;101693.73;1475413;88;21433;-84
2022/10/05 07:20:12;;;;;;;13.80;6.37;;;;;;;12.45;83.01;101687.64;1471762;87;21622;-84
2022/10/05 07:23:02;;;;;;;11.63;5.90;;;;;;;12.52;82.72;101688.82;1487151;87;21389;-83
2022/10/05 07:25:39;;;;;;;9.00;5.80;;;;;;;12.56;81.52;101686.25;1462500;89;21652;-84
2022/10/05 07:28:16;;;;;;;14.77;6.50;;;;;;;12.55;81.59;101687.73;1480290;88;21375;-84
2022/10/05 07:31:06;;;;;;;10.43;6.83;;;;;;;12.38;80.33;101684.66;1477716;88;21531;-84
2022/10/05 07:34:01;;;;;;;10.73;7.20;;;;;;;12.36;80.85;101673.33;1435840;88;21545;-84
2022/10/05 07:39:24;;;;;;;;;;;;;;;12.53;81.84;101679.88;1442633;89;21463;-84
2022/10/05 07:41:56;;;;;;;14.67;7.53;;;;;;;12.67;78.77;101669.41;1495720;87;20336;-85
2022/10/05 07:44:32;;;;;;;11.80;7.13;;;;;;;12.87;81.84;101659.73;1490131;87;21438;-83
2022/10/05 07:47:06;;;;;;;18.10;5.73;;;;;;;13.07;81.32;101654.85;1470707;87;21364;-84
2022/10/05 07:50:06;;;;;;;11.33;5.93;;;;;;;13.21;80.42;101647.50;1486928;87;21625;-84
2022/10/05 07:52:46;;;;;;;11.07;5.43;;;;;;;13.32;79.52;101644.73;1491358;87;21526;-83
2022/10/05 07:55:22;;;;;;;;;;;;;;;13.44;79.17;101627.71;1496075;87;21452;-84
2022/10/05 07:58:02;;;;;;;10.83;5.67;;;;;;;13.53;77.91;101604.77;1487899;87;20307;-83
2022/10/05 08:01:00;;;;;;;9.25;6.45;;;;;;;13.58;77.67;101595.89;1489996;87;21408;-84
2022/10/05 08:03:56;;;;;;;11.63;6.10;;;;;;;13.65;77.64;101594.34;1493326;87;21715;-81
2022/10/05 08:06:40;;;;;;;9.17;5.13;;;;;;;13.72;77.00;101585.30;1431404;90;21722;-82
2022/10/05 08:09:53;;;;;;;9.37;5.10;;;;;;;13.72;76.79;101586.17;1464143;88;21521;-82
2022/10/05 08:12:30;;;;;;;9.73;4.70;;;;;;;13.79;75.78;101591.77;1473568;88;22299;-84
2022/10/05 08:15:10;;;;;;;11.20;4.47;;;;;;;13.95;77.12;101609.81;1490797;87;21448;-83
2022/10/05 08:17:52;;;;;;;6.43;3.73;;;;;;;14.10;76.01;101610.25;1483842;87;22364;-83
2022/10/05 08:20:49;;;;;;;9.87;4.60;;;;;;;14.18;75.97;101622.33;1467193;88;22370;-84
2022/10/05 08:23:47;;;;;;;7.43;4.43;;;;;;;14.22;74.53;101633.06;1483497;87;21398;-85
2022/10/05 08:26:58;;;;;;;7.47;4.37;;;;;;;14.30;74.27;101640.33;1488085;87;21524;-84
2022/10/05 08:29:30;;;;;;;10.10;4.55;;;;;;;14.42;75.17;101637.88;1487181;87;21553;-84
2022/10/05 08:32:23;;;;;;;7.23;4.10;;;;;;;14.68;75.02;101650.11;1488190;87;21473;-84
2022/10/05 08:34:58;;;;;;;8.30;4.10;;;;;;;14.81;73.77;101652.44;1485758;87;21495;-84
2022/10/05 08:37:34;;;;;;;8.40;4.70;;;;;;;14.92;72.66;101654.93;1485042;87;21429;-85
2022/10/05 08:40:34;;;;;;;6.80;3.97;;;;;;;15.05;71.98;101666.61;1489764;87;21421;-85
2022/10/05 08:43:12;;;;;;;6.00;3.52;;;;;;;15.18;71.63;101668.43;1476924;87;21460;-85
2022/10/05 08:46:27;;;;;;;5.40;4.23;;;;;;;15.31;70.83;101677.44;1495471;87;21644;-85
2022/10/05 08:49:11;;;;;;;12.37;3.97;;;;;;;15.37;69.27;101672.01;1490992;87;21526;-85
2022/10/05 08:52:05;;;;;;;8.30;3.63;;;;;;;15.49;68.85;101671.64;1486189;87;21475;-85
2022/10/05 08:55:00;;;;;;;6.00;4.43;;;;;;;15.58;67.97;101676.58;1494775;87;22266;-85
2022/10/05 08:58:02;;;;;;;4.87;3.60;;;;;;;15.76;68.89;101674.79;1489718;87;21600;-82
2022/10/05 09:00:36;;;;;;;13.33;5.70;;;;;;;15.94;68.64;101672.62;1497926;87;21668;-82
2022/10/05 09:03:54;;;;;;;5.47;4.00;;;;;;;16.06;66.42;101661.24;1495234;87;21541;-83
2022/10/05 09:06:36;;;;;;;6.33;3.83;;;;;;;16.19;67.21;101654.48;1491228;87;21467;-83
2022/10/05 09:09:26;;;;;;;6.30;4.23;;;;;;;16.43;66.76;101645.02;1492232;87;21801;-81
2022/10/05 09:12:49;;;;;;;4.77;3.30;;;;;;;16.56;64.22;101641.41;1495309;87;21526;-82
2022/10/05 09:15:54;;;;;;;6.50;3.83;;;;;;;16.65;62.33;101622.25;1489561;87;22525;-81
2022/10/05 09:18:54;;;;;;;7.93;3.93;;;;;;;16.80;62.54;101617.17;1490804;86;21459;-81
2022/10/05 09:21:40;;;;;;;11.17;4.83;;;;;;;17.07;61.93;101614.30;1470887;87;21593;-84
2022/10/05 09:24:15;;;;;;;10.63;4.07;;;;;;;17.36;61.01;101609.87;1498172;86;21453;-80
2022/10/05 09:26:49;;;;;;;7.90;3.50;;;;;;;17.79;60.35;101612.50;1486795;87;21489;-80
2022/10/05 09:29:53;;;;;;;7.87;2.90;;;;;;;17.90;55.80;101616.20;1484434;87;21482;-86
2022/10/05 09:32:50;;;;;;;5.10;2.97;;;;;;;18.19;58.08;101621.55;1493810;87;22304;-87
2022/10/05 09:36:06;;;;;;;4.73;3.63;;;;;;;18.37;54.88;101632.91;1470653;87;21410;-86
2022/10/05 09:38:42;;;;;;;6.03;3.58;;;;;;;18.65;54.96;101633.87;1490429;87;21401;-86
2022/10/05 09:41:30;;;;;;;6.28;3.40;;;;;;;19.06;54.55;101636.45;1494480;87;21505;-86
2022/10/05 09:44:23;;;;;;;7.75;3.77;;;;;;;19.14;52.96;101640.45;1496595;87;22407;-87
2022/10/05 09:47:15;;;;;;;7.65;2.80;;;;;;;19.44;53.53;101635.26;1486637;87;21525;-87
2022/10/05 09:50:07;;;;;;;8.30;2.70;;;;;;;19.84;51.24;101626.95;1485265;87;21726;-86
2022/10/05 09:53:05;;;;;;;6.03;2.52;;;;;;;20.03;51.11;101622.12;1487581;87;21670;-86
2022/10/05 09:55:49;;;;;;;4.40;2.10;;;;;;;19.89;49.96;101619.72;1453558;90;21404;-87
2022/10/05 09:58:55;;;;;;;4.78;1.92;;;;;;;19.93;49.18;101617.50;1442113;90;21991;-87
2022/10/05 10:01:47;;;;;;;4.05;1.85;;;;;;;19.94;50.10;101623.19;1403221;93;21516;-88
2022/10/05 10:04:29;;;;;;;4.25;2.20;;;;;;;19.71;47.64;101619.16;1399065;93;21767;-89
2022/10/05 10:07:34;;;;;;;5.78;2.50;;;;;;;19.79;49.75;101627.16;1397618;93;21567;-88
2022/10/05 10:10:29;;;;;;;7.75;2.12;;;;;;;19.69;50.06;101627.41;1400087;93;21694;-88
2022/10/05 10:13:30;;;;;;;7.20;2.20;;;;;;;19.61;49.78;101638.17;1403812;93;21515;-88
2022/10/05 10:16:25;;;;;;;8.45;2.83;;;;;;;19.45;49.83;101654.37;1400306;93;22425;-87
2022/10/05 10:19:11;;;;;;;6.47;3.00;;;;;;;19.35;49.97;101663.99;1404175;93;22374;-89
2022/10/05 10:22:16;;;;;;;9.00;2.80;;;;;;;19.37;50.35;101656.61;1399370;93;21546;-89
2022/10/05 10:25:18;;;;;;;5.67;3.02;;;;;;;19.20;49.90;101653.16;1398146;93;21522;-83
2022/10/05 10:28:33;;;;;;;6.58;2.67;;;;;;;18.93;50.49;101656.63;1402621;93;22380;-88
2022/10/05 10:31:31;;;;;;;10.65;2.37;;;;;;;18.86;50.83;101658.31;1403944;93;21404;-88
2022/10/05 10:34:43;;;;;;;6.83;2.70;;;;;;;18.82;51.73;101644.92;1398471;93;21628;-88
2022/10/05 10:37:27;;;;;;;9.60;3.87;;;;;;;18.68;51.54;101644.26;1403744;93;21479;-87
2022/10/05 10:40:14;;;;;;;5.47;3.60;;;;;;;18.59;51.54;101639.42;1403395;93;21530;-88
2022/10/05 10:43:18;;;;;;;9.35;4.08;;;;;;;18.42;50.94;101625.71;1398802;93;21621;-87
2022/10/05 10:46:17;;;;;;;10.75;5.67;;;;;;;18.25;51.58;101642.31;1403417;93;21655;-88
2022/10/05 10:49:10;;;;;;;6.78;3.58;;;;;;;18.28;52.91;101643.81;1399055;93;22351;-89
2022/10/05 10:52:00;;;;;;;13.70;2.83;;;;;;;18.45;52.81;101650.33;1399526;93;22566;-88
2022/10/05 10:55:03;;;;;;;4.40;2.65;;;;;;;18.51;51.12;101647.98;1406621;93;22613;-88
2022/10/05 10:57:53;;;;;;;6.25;2.60;;;;;;;18.62;52.60;101654.33;1406802;93;22337;-89
2022/10/05 11:00:24;;;;;;;10.08;3.42;;;;;;;18.76;52.24;101650.98;1394368;93;22403;-88
2022/10/05 11:03:01;;;;;;;8.53;3.10;;;;;;;18.91;51.42;101645.22;1399543;93;21523;-90
2022/10/05 11:05:59;;;;;;;5.40;3.30;;;;;;;19.12;51.35;101640.61;1395468;93;21590;-89
2022/10/05 11:09:08;;;;;;;8.03;2.77;;;;;;;19.24;51.16;101649.11;1395225;93;22463;-87
2022/10/05 11:11:45;;;;;;;8.35;4.17;;;;;;;19.37;50.89;101649.39;1404351;93;21657;-89
2022/10/05 11:14:51;;;;;;;9.13;3.87;;;;;;;19.48;50.79;101640.59;1403356;93;21703;-88
2022/10/05 11:17:59;;;;;;;7.17;2.83;;;;;;;19.38;50.62;101647.53;1435686;91;21604;-90
2022/10/05 11:20:51;;;;;;;4.95;2.60;;;;;;;19.36;51.01;101645.52;1438032;91;21515;-88
2022/10/05 11:23:59;;;;;;;5.55;2.90;;;;;;;19.38;49.71;101643.00;1442281;91;21530;-88
2022/10/05 11:26:43;;;;;;;10.72;3.17;;;;;;;19.61;50.09;101642.20;1431930;91;21559;-89
2022/10/05 11:29:45;;;;;;;4.83;2.52;;;;;;;19.65;49.25;101650.28;1426931;91;21544;-88
2022/10/05 11:32:52;;;;;;;3.95;2.17;;;;;;;19.50;48.36;101650.66;1424901;91;21397;-89
2022/10/05 11:35:39;;;;;;;5.67;2.77;;;;;;;19.15;47.59;101636.74;1435509;91;21522;-93
2022/10/05 11:38:32;;;;;;;3.83;3.12;;;;;;;19.15;49.72;101628.69;1431080;91;21456;-89
2022/10/05 11:41:31;;;;;;;5.28;2.90;;;;;;;18.89;49.54;101627.12;1437544;91;21485;-89
2022/10/05 11:44:29;;;;;;;10.60;3.77;;;;;;;18.90;50.32;101626.13;1395827;94;21542;-90
2022/10/05 11:47:13;;;;;;;8.40;3.33;;;;;;;18.70;50.20;101630.16;1397891;93;22326;-91
2022/10/05 11:50:04;;;;;;;3.42;2.60;;;;;;;18.46;50.63;101621.67;1402930;93;21479;-89
2022/10/05 11:52:47;;;;;;;9.28;3.55;;;;;;;18.46;50.33;101623.02;1435629;91;22652;-88
2022/10/05 11:55:28;;;;;;;6.78;2.58;;;;;;;18.30;51.05;101618.53;1435091;91;21484;-89
2022/10/05 11:58:02;;;;;;;5.00;2.98;;;;;;;18.43;51.23;101613.47;1431851;91;21677;-90
2022/10/05 12:00:39;;;;;;;8.75;2.80;;;;;;;18.49;50.90;101614.12;1435528;91;22023;-89
2022/10/05 12:03:20;;;;;;;5.30;2.92;;;;;;;18.37;50.47;101610.13;1436652;91;21585;-88
2022/10/05 12:05:55;;;;;;;;;;;;;;;18.46;50.52;101609.61;1436513;91;21508;-88
2022/10/05 12:09:10;;;;;;;3.67;2.15;;;;;;;18.75;50.58;101610.41;1436875;91;20271;-86
2022/10/05 12:12:09;;;;;;;8.10;2.17;;;;;;;19.00;49.73;101611.67;1435221;91;21353;-88
2022/10/05 12:14:53;;;;;;;4.05;1.40;;;;;;;19.22;49.09;101614.06;1443271;91;22528;-89
2022/10/05 12:17:37;;;;;;;3.22;1.70;;;;;;;19.27;47.82;101600.44;1427803;91;22513;-88
2022/10/05 12:20:09;;;;;;;8.23;2.75;;;;;;;19.32;47.67;101591.88;1445002;91;21493;-87
2022/10/05 12:22:49;;;;;;;4.33;2.30;;;;;;;19.22;48.22;101588.56;1429897;91;21456;-89
2022/10/05 12:25:42;;;;;;;4.00;3.22;;;;;;;19.04;48.54;101587.48;1436852;91;21531;-89
2022/10/05 12:28:20;;;;;;;6.45;3.58;;;;;;;18.94;49.05;101588.55;1433329;91;22374;-89
2022/10/05 12:31:03;;;;;;;5.67;2.40;;;;;;;19.03;49.09;101587.17;1431955;91;21426;-89
2022/10/05 12:33:47;;;;;;;11.53;2.17;;;;;;;19.04;48.11;101590.17;1409984;91;21455;-85
2022/10/05 12:36:34;;;;;;;5.50;2.17;;;;;;;19.22;49.22;101585.41;1436615;91;21674;-90
2022/10/05 12:39:15;;;;;;;4.42;2.35;;;;;;;19.46;48.90;101589.77;1429368;91;21390;-90
2022/10/05 12:41:49;;;;;;;3.35;1.87;;;;;;;19.70;47.34;101586.10;1438158;91;21604;-88
2022/10/05 12:45:03;;;;;;;4.10;1.55;;;;;;;20.03;44.67;101577.79;1434732;91;22005;-90
2022/10/05 12:48:07;;;;;;;10.00;1.77;;;;;;;20.24;44.27;101573.88;1435666;91;21375;-89
2022/10/05 12:50:50;;;;;;;2.83;1.57;;;;;;;20.48;44.33;101571.95;1432331;91;21582;-91
2022/10/05 12:53:36;;;;;;;5.05;2.17;;;;;;;21.01;42.93;101567.31;1422343;91;21508;-88
2022/10/05 12:56:17;;;;;;;4.08;1.95;;;;;;;21.21;41.90;101560.81;1430607;91;21441;-89
2022/10/05 12:59:13;;;;;;;5.22;1.65;;;;;;;21.42;42.76;101566.75;1438339;91;21412;-89
2022/10/05 13:01:45;;;;;;;5.60;1.62;;;;;;;21.67;43.01;101561.00;1440261;91;22537;-90